Time;durP1;ratioP1;P1;durP2;ratioP2;P2;SDS_P1;SDS_P2;PMS_P1;PMS_P2;Temp;Humidity;BMP_temperature;BMP_pressure;BME280_temperature;BME280_humidity;BME280_pressure;Samples;Min_cycle;Max_cycle;Signal;HPM_P1;HPM_P2
2022/03/28 00:02:22;;;;;;;11.60;6.50;;;7.10;99.90;;;;;;1913928;75;21112;-72
2022/03/28 00:04:49;;;;;;;12.07;6.97;;;7.10;99.90;;;;;;1913775;75;21172;-72
2022/03/28 00:07:16;;;;;;;13.45;6.78;;;7.00;99.90;;;;;;1913841;75;21063;-73
2022/03/28 00:09:44;;;;;;;13.55;6.40;;;7.00;99.90;;;;;;1913849;75;21485;-73
2022/03/28 00:12:11;;;;;;;12.50;6.90;;;7.00;99.90;;;;;;1913831;74;21077;-72
2022/03/28 00:14:38;;;;;;;15.58;6.92;;;6.90;99.90;;;;;;1913833;75;21520;-72
2022/03/28 00:17:06;;;;;;;9.75;6.03;;;6.90;99.90;;;;;;1913864;75;21129;-72
2022/03/28 00:19:33;;;;;;;12.70;7.03;;;6.80;99.90;;;;;;1913771;75;21079;-74
2022/03/28 00:22:00;;;;;;;11.97;6.15;;;6.90;99.90;;;;;;1913854;73;21394;-73
2022/03/28 00:24:28;;;;;;;15.13;7.05;;;6.80;99.90;;;;;;1913920;73;21096;-73
2022/03/28 00:26:55;;;;;;;14.35;7.28;;;6.80;99.90;;;;;;1913843;75;21062;-72
2022/03/28 00:29:22;;;;;;;12.75;6.92;;;6.80;99.90;;;;;;1913786;75;21557;-73
2022/03/28 00:31:50;;;;;;;11.55;6.87;;;6.70;99.90;;;;;;1913878;75;21097;-72
2022/03/28 00:34:21;;;;;;;14.33;6.80;;;6.70;99.90;;;;;;1923527;73;21122;-73
2022/03/28 00:36:46;;;;;;;16.60;6.85;;;6.70;99.90;;;;;;1913303;75;21167;-72
2022/03/28 00:39:13;;;;;;;13.68;7.17;;;6.60;99.90;;;;;;1914113;74;21153;-72
2022/03/28 00:41:41;;;;;;;10.40;6.70;;;6.60;99.90;;;;;;1913858;75;21178;-73
2022/03/28 00:44:08;;;;;;;17.07;7.40;;;6.50;99.90;;;;;;1899628;75;21105;-73
2022/03/28 00:46:36;;;;;;;14.35;7.28;;;6.40;99.90;;;;;;1913974;74;21073;-72
2022/03/28 00:49:03;;;;;;;16.77;8.48;;;6.30;99.90;;;;;;1913766;74;21150;-72
2022/03/28 00:51:30;;;;;;;18.12;8.08;;;6.30;99.90;;;;;;1914078;74;21438;-72
2022/03/28 00:53:58;;;;;;;23.55;8.98;;;6.30;99.90;;;;;;1914399;74;21072;-72
2022/03/28 00:56:25;;;;;;;14.43;9.15;;;6.30;99.90;;;;;;1914156;73;21477;-72
2022/03/28 00:58:52;;;;;;;18.37;8.43;;;6.40;99.90;;;;;;1914537;74;21085;-74
2022/03/28 01:01:20;;;;;;;14.03;8.10;;;6.40;99.90;;;;;;1913849;74;21137;-72
2022/03/28 01:03:47;;;;;;;13.30;7.78;;;6.30;99.90;;;;;;1914560;74;21098;-71
2022/03/28 01:06:14;;;;;;;14.45;7.22;;;6.10;99.90;;;;;;1913804;74;21150;-72
2022/03/28 01:08:41;;;;;;;14.70;7.50;;;6.10;99.90;;;;;;1914532;74;21063;-73
2022/03/28 01:11:13;;;;;;;16.10;7.60;;;6.10;99.90;;;;;;1913895;74;21096;-72
2022/03/28 01:13:42;;;;;;;19.55;7.42;;;6.00;99.90;;;;;;1914002;74;21119;-73
2022/03/28 01:16:09;;;;;;;11.45;7.28;;;6.00;99.90;;;;;;1913923;75;21163;-73
2022/03/28 01:18:37;;;;;;;15.03;7.97;;;5.90;99.90;;;;;;1913722;75;21450;-73
2022/03/28 01:21:06;;;;;;;18.30;8.03;;;5.90;99.90;;;;;;1913776;75;21120;-72
2022/03/28 01:23:33;;;;;;;15.60;7.80;;;5.80;99.90;;;;;;1909757;75;21140;-74
2022/03/28 01:26:00;;;;;;;18.42;7.58;;;5.80;99.90;;;;;;1913904;75;21066;-73
2022/03/28 01:28:28;;;;;;;15.72;7.37;;;5.80;99.90;;;;;;1913769;73;21176;-72
2022/03/28 01:30:55;;;;;;;13.85;7.40;;;5.70;99.90;;;;;;1913738;74;21138;-72
2022/03/28 01:33:23;;;;;;;13.10;6.78;;;5.60;99.90;;;;;;1913875;75;21541;-73
2022/03/28 01:35:52;;;;;;;16.00;8.03;;;5.70;99.90;;;;;;1913710;74;21582;-72
2022/03/28 01:38:19;;;;;;;16.65;8.45;;;5.50;99.90;;;;;;1913678;74;21104;-72
2022/03/28 01:40:48;;;;;;;12.60;8.25;;;5.50;99.90;;;;;;1913613;75;21538;-72
2022/03/28 01:43:16;;;;;;;13.45;8.08;;;5.40;99.90;;;;;;1913806;75;21119;-72
2022/03/28 01:45:43;;;;;;;14.55;8.50;;;5.40;99.90;;;;;;1918499;74;21143;-72
2022/03/28 01:48:10;;;;;;;18.62;9.28;;;5.50;99.90;;;;;;1916586;74;21560;-72
2022/03/28 01:50:38;;;;;;;17.35;8.73;;;5.50;99.90;;;;;;1913707;75;21505;-72
2022/03/28 01:53:05;;;;;;;25.30;9.28;;;5.40;99.90;;;;;;1913732;75;21131;-72
2022/03/28 01:55:32;;;;;;;16.50;9.40;;;5.30;99.90;;;;;;1913866;75;21074;-72
2022/03/28 01:58:00;;;;;;;16.60;9.20;;;5.30;99.90;;;;;;1915757;74;21161;-72
2022/03/28 02:00:32;;;;;;;16.45;9.10;;;5.40;99.90;;;;;;1913689;75;21089;-73
2022/03/28 02:03:00;;;;;;;13.95;8.40;;;5.30;99.90;;;;;;1913722;74;21529;-74
2022/03/28 02:05:27;;;;;;;16.25;8.48;;;5.30;99.90;;;;;;1913752;73;21506;-73
2022/03/28 02:07:55;;;;;;;14.75;8.90;;;5.30;99.90;;;;;;1913735;75;21118;-72
2022/03/28 02:10:23;;;;;;;15.93;8.33;;;5.20;99.90;;;;;;1913757;75;21222;-73
2022/03/28 02:12:50;;;;;;;14.83;8.78;;;5.10;99.90;;;;;;1913709;75;21068;-73
2022/03/28 02:15:18;;;;;;;15.93;8.18;;;5.20;99.90;;;;;;1913678;73;21111;-73
2022/03/28 02:17:45;;;;;;;17.85;8.88;;;5.10;99.90;;;;;;1913564;74;21171;-73
2022/03/28 02:20:13;;;;;;;11.78;8.35;;;5.10;99.90;;;;;;1913772;74;21157;-73
2022/03/28 02:22:41;;;;;;;20.37;8.78;;;5.10;99.90;;;;;;1913694;75;21164;-74
2022/03/28 02:25:09;;;;;;;21.27;8.98;;;5.10;99.90;;;;;;1913663;74;21490;-72
2022/03/28 02:27:37;;;;;;;21.85;9.00;;;5.10;99.90;;;;;;1908211;75;21066;-73
2022/03/28 02:30:06;;;;;;;12.35;8.25;;;5.10;99.90;;;;;;1909913;74;21533;-73
2022/03/28 02:32:34;;;;;;;16.23;9.33;;;5.10;99.90;;;;;;1913337;74;21085;-73
2022/03/28 02:35:02;;;;;;;14.80;8.35;;;5.10;99.90;;;;;;1913380;74;21078;-72
2022/03/28 02:37:30;;;;;;;16.25;8.88;;;5.00;99.90;;;;;;1914570;75;21050;-73
2022/03/28 02:39:57;;;;;;;22.67;9.85;;;4.90;99.90;;;;;;1917644;72;21225;-73
2022/03/28 02:42:24;;;;;;;22.25;8.65;;;4.80;99.90;;;;;;1917784;75;21118;-73
2022/03/28 02:44:52;;;;;;;12.55;7.95;;;4.70;99.90;;;;;;1916758;74;21124;-72
2022/03/28 02:47:20;;;;;;;18.42;9.23;;;4.70;99.90;;;;;;1913976;74;21469;-72
2022/03/28 02:49:47;;;;;;;16.10;8.48;;;4.60;99.90;;;;;;1913723;75;21097;-72
2022/03/28 02:52:15;;;;;;;16.12;8.73;;;4.70;99.90;;;;;;1913888;75;21203;-73
2022/03/28 02:54:42;;;;;;;15.85;9.45;;;4.60;99.90;;;;;;1913851;74;21085;-72
2022/03/28 02:57:09;;;;;;;28.25;8.90;;;4.60;99.90;;;;;;1913811;75;21148;-73
2022/03/28 02:59:36;;;;;;;15.72;8.63;;;4.60;99.90;;;;;;1913693;75;21528;-72
2022/03/28 03:02:04;;;;;;;16.23;8.35;;;4.70;99.90;;;;;;1913818;75;21084;-73
2022/03/28 03:04:32;;;;;;;12.53;7.67;;;4.70;99.90;;;;;;1913850;75;21175;-72
2022/03/28 03:06:59;;;;;;;14.05;8.58;;;4.70;99.90;;;;;;1913706;75;21152;-72
2022/03/28 03:09:26;;;;;;;14.87;7.55;;;4.60;99.90;;;;;;1913807;75;21217;-72
2022/03/28 03:11:54;;;;;;;12.23;7.50;;;4.50;99.90;;;;;;1913792;74;21213;-72
2022/03/28 03:14:22;;;;;;;16.45;8.18;;;4.50;99.90;;;;;;1913763;75;21236;-72
2022/03/28 03:16:50;;;;;;;20.45;8.58;;;4.50;99.90;;;;;;1913780;75;21081;-72
2022/03/28 03:19:17;;;;;;;16.67;8.10;;;4.40;99.90;;;;;;1913710;75;21120;-72
2022/03/28 03:21:46;;;;;;;16.65;8.35;;;4.40;99.90;;;;;;1918340;74;21163;-72
2022/03/28 03:24:13;;;;;;;16.82;8.45;;;4.40;99.90;;;;;;1913819;73;21170;-72
2022/03/28 03:26:40;;;;;;;16.15;8.85;;;4.40;99.90;;;;;;1909688;74;21111;-72
2022/03/28 03:29:08;;;;;;;16.65;8.28;;;4.30;99.90;;;;;;1913871;74;21496;-72
2022/03/28 03:31:35;;;;;;;15.05;8.33;;;4.20;99.90;;;;;;1914009;74;21539;-72
2022/03/28 03:34:02;;;;;;;14.63;7.90;;;4.30;99.90;;;;;;1914279;74;21097;-73
2022/03/28 03:36:30;;;;;;;16.40;8.33;;;4.20;99.90;;;;;;1913847;73;21062;-72
2022/03/28 03:38:58;;;;;;;14.47;8.55;;;4.20;99.90;;;;;;1914069;74;21128;-72
2022/03/28 03:41:25;;;;;;;14.13;8.70;;;4.10;99.90;;;;;;1913935;74;21520;-72
2022/03/28 03:43:52;;;;;;;15.58;9.38;;;4.10;99.90;;;;;;1893733;74;21117;-73
2022/03/28 03:46:20;;;;;;;17.07;8.68;;;4.00;99.90;;;;;;1895918;75;21082;-73
2022/03/28 03:48:47;;;;;;;15.35;9.00;;;4.10;99.90;;;;;;1897674;75;21109;-72
2022/03/28 03:51:14;;;;;;;19.80;8.53;;;4.10;99.90;;;;;;1897630;75;21154;-72
2022/03/28 03:53:42;;;;;;;15.13;8.63;;;4.10;99.90;;;;;;1897744;75;21090;-72
2022/03/28 03:56:09;;;;;;;19.70;9.25;;;4.10;99.90;;;;;;1906951;75;21180;-72
2022/03/28 03:58:36;;;;;;;14.23;8.90;;;4.00;99.90;;;;;;1897675;75;21137;-73
2022/03/28 04:01:04;;;;;;;15.08;8.85;;;4.00;99.90;;;;;;1897785;75;21489;-72
2022/03/28 04:03:33;;;;;;;15.20;9.10;;;4.00;99.90;;;;;;1897795;75;21060;-72
2022/03/28 04:06:00;;;;;;;13.48;8.48;;;4.00;99.90;;;;;;1897847;75;21100;-71
2022/03/28 04:08:28;;;;;;;15.50;8.75;;;4.00;99.90;;;;;;1897790;75;21130;-72
2022/03/28 04:10:55;;;;;;;17.40;9.05;;;4.00;99.90;;;;;;1897690;75;21105;-73
2022/03/28 04:13:23;;;;;;;13.03;8.23;;;3.90;99.90;;;;;;1897810;75;21517;-72
2022/03/28 04:15:51;;;;;;;30.48;10.43;;;3.80;99.90;;;;;;1897772;75;21559;-72
2022/03/28 04:18:18;;;;;;;25.43;9.20;;;3.80;99.90;;;;;;1897812;75;21129;-73
2022/03/28 04:20:46;;;;;;;14.85;8.40;;;3.80;99.90;;;;;;1897643;75;21211;-74
2022/03/28 04:23:13;;;;;;;25.88;8.70;;;3.70;99.90;;;;;;1897982;75;21074;-74
2022/03/28 04:25:40;;;;;;;15.48;8.75;;;3.80;99.90;;;;;;1897703;75;21083;-74
2022/03/28 04:28:11;;;;;;;16.27;9.05;;;3.80;99.90;;;;;;1897832;75;21108;-74
2022/03/28 04:30:38;;;;;;;15.85;9.40;;;3.70;99.90;;;;;;1897777;75;21169;-73
2022/03/28 04:33:11;;;;;;;13.50;8.68;;;3.70;99.90;;;;;;1898374;75;21530;-72
2022/03/28 04:35:35;;;;;;;23.42;8.78;;;3.70;99.90;;;;;;1899765;75;21618;-72
2022/03/28 04:38:04;;;;;;;16.55;9.18;;;3.70;99.90;;;;;;1913745;75;21149;-74
2022/03/28 04:40:33;;;;;;;14.38;8.55;;;3.50;99.90;;;;;;1913992;74;21243;-73
2022/03/28 04:43:00;;;;;;;23.67;8.63;;;3.60;99.90;;;;;;1913804;75;21452;-73
2022/03/28 04:45:30;;;;;;;18.65;9.53;;;3.60;99.90;;;;;;1913800;75;21143;-74
2022/03/28 04:47:58;;;;;;;15.80;9.15;;;3.60;99.90;;;;;;1913857;74;21278;-72
2022/03/28 04:50:26;;;;;;;15.35;8.63;;;3.60;99.90;;;;;;1910156;74;21508;-74
2022/03/28 04:52:53;;;;;;;14.78;8.93;;;3.60;99.90;;;;;;1913805;73;21100;-74
2022/03/28 04:55:21;;;;;;;15.83;9.43;;;3.60;99.90;;;;;;1913869;75;21060;-75
2022/03/28 04:57:48;;;;;;;16.70;9.00;;;3.50;99.90;;;;;;1913763;74;21163;-74
2022/03/28 05:00:16;;;;;;;17.25;8.85;;;3.50;99.90;;;;;;1913862;73;21171;-74
2022/03/28 05:02:43;;;;;;;17.70;9.30;;;3.40;99.90;;;;;;1913842;75;21149;-74
2022/03/28 05:05:11;;;;;;;20.60;9.60;;;3.50;99.90;;;;;;1914185;75;21494;-74
2022/03/28 05:07:39;;;;;;;16.35;9.38;;;3.50;99.90;;;;;;1914217;75;21512;-75
2022/03/28 05:10:06;;;;;;;22.62;9.45;;;3.50;99.90;;;;;;1914252;75;21480;-74
2022/03/28 05:12:34;;;;;;;15.63;9.13;;;3.50;99.90;;;;;;1914155;74;21606;-74
2022/03/28 05:15:01;;;;;;;14.93;8.93;;;3.50;99.90;;;;;;1914159;73;21092;-71
2022/03/28 05:17:30;;;;;;;16.70;9.03;;;3.40;99.90;;;;;;1913992;75;21527;-71
2022/03/28 05:19:59;;;;;;;16.82;9.20;;;3.40;99.90;;;;;;1889441;75;21229;-71
2022/03/28 05:22:26;;;;;;;12.55;8.23;;;3.40;99.90;;;;;;1914148;75;21070;-71
2022/03/28 05:24:54;;;;;;;16.27;9.25;;;3.40;99.90;;;;;;1914180;74;21087;-72
2022/03/28 05:27:21;;;;;;;25.40;10.23;;;3.40;99.90;;;;;;1914252;75;21112;-73
2022/03/28 05:29:52;;;;;;;17.67;9.30;;;3.40;99.90;;;;;;1914110;74;21144;-70
2022/03/28 05:32:19;;;;;;;;;;;3.30;99.90;;;;;;1917053;74;21106;-71
2022/03/28 05:34:46;;;;;;;16.90;8.60;;;3.40;99.90;;;;;;1914221;75;20357;-70
2022/03/28 05:37:15;;;;;;;17.12;8.88;;;3.60;99.90;;;;;;1916124;74;21071;-75
2022/03/28 05:39:44;;;;;;;20.40;8.78;;;3.60;99.90;;;;;;1914352;75;21128;-74
2022/03/28 05:42:11;;;;;;;23.80;9.68;;;3.50;99.90;;;;;;1914372;74;21093;-73
2022/03/28 05:44:40;;;;;;;20.30;9.80;;;3.60;99.90;;;;;;1914274;75;21150;-71
2022/03/28 05:47:09;;;;;;;18.60;8.95;;;3.60;99.90;;;;;;1914272;75;21124;-72
2022/03/28 05:49:36;;;;;;;21.75;9.43;;;3.60;99.90;;;;;;1914375;75;21109;-73
2022/03/28 05:52:03;;;;;;;16.05;9.23;;;3.60;99.90;;;;;;1913944;75;21159;-75
2022/03/28 05:54:31;;;;;;;14.60;9.45;;;3.70;99.90;;;;;;1913841;75;21063;-73
2022/03/28 05:56:58;;;;;;;22.55;9.03;;;3.70;99.90;;;;;;1913855;75;21221;-73
2022/03/28 05:59:25;;;;;;;14.70;9.00;;;3.80;99.90;;;;;;1915900;73;21149;-74
2022/03/28 06:01:53;;;;;;;21.65;8.73;;;3.90;99.90;;;;;;1913793;74;21081;-74
2022/03/28 06:04:20;;;;;;;16.23;9.48;;;3.90;99.90;;;;;;1913996;75;21497;-75
2022/03/28 06:06:48;;;;;;;15.72;9.78;;;3.90;99.90;;;;;;1913920;75;21591;-73
2022/03/28 06:09:15;;;;;;;19.17;9.23;;;4.00;99.90;;;;;;1913886;75;21166;-74
2022/03/28 06:11:42;;;;;;;24.92;9.75;;;4.00;99.90;;;;;;1913966;75;21086;-75
2022/03/28 06:14:10;;;;;;;19.50;9.43;;;4.10;99.90;;;;;;1913991;75;21092;-72
2022/03/28 06:16:37;;;;;;;26.45;10.30;;;4.30;99.90;;;;;;1909925;75;21229;-75
2022/03/28 06:19:05;;;;;;;24.25;10.55;;;4.20;99.90;;;;;;1914030;74;21167;-75
2022/03/28 06:21:32;;;;;;;24.82;10.65;;;4.40;99.90;;;;;;1913967;75;21122;-75
2022/03/28 06:24:00;;;;;;;27.95;10.30;;;4.40;99.90;;;;;;1914080;74;21092;-74
2022/03/28 06:26:27;;;;;;;17.65;9.73;;;4.60;99.90;;;;;;1914097;75;21135;-76
2022/03/28 06:28:55;;;;;;;20.30;10.00;;;4.70;99.90;;;;;;1913982;74;21088;-77
2022/03/28 06:31:22;;;;;;;18.12;10.20;;;4.70;99.90;;;;;;1913999;75;21104;-72
2022/03/28 06:33:51;;;;;;;26.82;10.53;;;4.70;99.90;;;;;;1923396;74;21465;-73
2022/03/28 06:36:18;;;;;;;18.52;10.50;;;4.80;99.90;;;;;;1913998;75;21186;-75
2022/03/28 06:38:46;;;;;;;26.80;10.90;;;4.80;99.90;;;;;;1891167;74;21113;-74
2022/03/28 06:41:14;;;;;;;15.55;9.90;;;4.90;99.90;;;;;;1904761;74;21092;-73
2022/03/28 06:43:42;;;;;;;17.02;9.88;;;5.00;99.90;;;;;;1917213;75;21134;-72
2022/03/28 06:46:09;;;;;;;18.37;10.35;;;5.10;99.90;;;;;;1915432;74;21071;-72
2022/03/28 06:48:36;;;;;;;22.30;10.82;;;5.20;99.90;;;;;;1913970;75;21093;-74
2022/03/28 06:51:06;;;;;;;33.83;10.58;;;5.30;99.90;;;;;;1913821;74;21126;-73
2022/03/28 06:53:36;;;;;;;25.52;10.13;;;5.40;99.90;;;;;;1913835;74;21417;-75
2022/03/28 06:56:02;;;;;;;22.27;10.43;;;5.60;99.90;;;;;;1914037;74;21077;-73
2022/03/28 06:58:30;;;;;;;30.80;10.68;;;5.60;99.90;;;;;;1914142;74;21064;-74
2022/03/28 07:00:57;;;;;;;18.82;10.08;;;5.80;99.90;;;;;;1911856;74;21588;-73
2022/03/28 07:03:25;;;;;;;21.57;10.78;;;6.00;99.90;;;;;;1914074;75;21170;-74
2022/03/28 07:05:52;;;;;;;22.42;10.10;;;6.20;99.90;;;;;;1914026;75;21056;-76
2022/03/28 07:08:19;;;;;;;23.30;11.45;;;6.20;99.90;;;;;;1914049;75;21436;-72
2022/03/28 07:10:47;;;;;;;25.90;10.30;;;6.30;99.90;;;;;;1913832;75;21255;-74
2022/03/28 07:13:14;;;;;;;17.30;10.15;;;6.40;99.90;;;;;;1916158;74;21048;-76
2022/03/28 07:15:41;;;;;;;23.95;10.25;;;6.50;99.90;;;;;;1914085;73;21427;-75
2022/03/28 07:18:09;;;;;;;18.27;10.38;;;6.50;99.90;;;;;;1913999;75;21037;-75
2022/03/28 07:20:36;;;;;;;17.60;10.38;;;6.60;99.90;;;;;;1913893;75;21521;-76
2022/03/28 07:23:04;;;;;;;20.30;10.05;;;6.80;99.90;;;;;;1913973;75;21398;-75
2022/03/28 07:25:32;;;;;;;22.42;10.35;;;6.90;99.90;;;;;;1923258;74;21021;-76
2022/03/28 07:28:09;;;;;;;17.92;10.78;;;7.00;99.90;;;;;;1913979;75;21148;-75
2022/03/28 07:30:37;;;;;;;20.45;10.58;;;7.00;99.90;;;;;;1911953;74;21028;-78
2022/03/28 07:33:06;;;;;;;26.48;10.85;;;7.10;99.90;;;;;;1913973;75;21025;-77
2022/03/28 07:35:35;;;;;;;28.25;11.18;;;7.20;99.90;;;;;;1913955;75;21068;-78
2022/03/28 07:38:07;;;;;;;24.35;10.90;;;7.40;99.90;;;;;;1913808;74;21072;-77
2022/03/28 07:40:33;;;;;;;26.75;11.73;;;7.50;99.90;;;;;;1913796;75;21072;-77
2022/03/28 07:43:01;;;;;;;22.80;10.48;;;7.60;99.90;;;;;;1913904;75;21452;-78
2022/03/28 07:45:28;;;;;;;19.67;11.22;;;7.70;99.90;;;;;;1914081;75;21060;-78
2022/03/28 07:47:56;;;;;;;20.88;11.12;;;8.00;99.90;;;;;;1914108;75;21111;-78
2022/03/28 07:50:23;;;;;;;27.07;10.82;;;8.10;99.90;;;;;;1920676;74;21036;-78
2022/03/28 07:52:50;;;;;;;20.97;11.55;;;8.30;99.90;;;;;;1914136;75;21464;-78
2022/03/28 07:55:18;;;;;;;22.48;11.12;;;8.60;99.90;;;;;;1914162;73;21080;-78
2022/03/28 07:57:45;;;;;;;22.10;12.10;;;8.70;99.90;;;;;;1914141;73;21037;-77
2022/03/28 08:00:15;;;;;;;26.23;10.63;;;8.70;99.90;;;;;;1914169;75;21075;-78
2022/03/28 08:02:43;;;;;;;30.62;11.28;;;8.80;99.90;;;;;;1914242;74;21457;-78
2022/03/28 08:05:10;;;;;;;22.17;11.68;;;9.10;99.90;;;;;;1914122;75;21410;-78
2022/03/28 08:07:38;;;;;;;18.45;10.35;;;9.30;99.90;;;;;;1918405;74;21100;-76
2022/03/28 08:10:06;;;;;;;16.65;11.18;;;9.50;99.90;;;;;;1914203;74;21045;-76
2022/03/28 08:12:36;;;;;;;29.37;10.58;;;9.80;99.90;;;;;;1914049;74;21025;-79
2022/03/28 08:15:05;;;;;;;22.95;11.43;;;10.30;99.90;;;;;;1913785;75;21086;-80
2022/03/28 08:17:32;;;;;;;29.15;11.63;;;10.50;99.90;;;;;;1914070;74;21069;-79
2022/03/28 08:19:59;;;;;;;21.30;11.10;;;10.50;99.90;;;;;;1914070;73;21045;-78
2022/03/28 08:22:27;;;;;;;33.90;11.95;;;10.70;99.90;;;;;;1914007;75;21107;-78
2022/03/28 08:24:54;;;;;;;24.98;11.93;;;11.10;99.90;;;;;;1918541;74;21110;-78
2022/03/28 08:27:21;;;;;;;22.95;10.45;;;11.30;99.90;;;;;;1914277;75;21110;-78
2022/03/28 08:29:49;;;;;;;24.37;11.78;;;11.10;99.90;;;;;;1914444;75;21048;-78
2022/03/28 08:32:18;;;;;;;25.57;11.28;;;11.40;99.90;;;;;;1914082;75;21072;-77
2022/03/28 08:34:49;;;;;;;27.02;12.28;;;12.00;99.90;;;;;;1914151;73;21482;-77
2022/03/28 08:37:16;;;;;;;17.77;11.48;;;12.40;99.90;;;;;;1914063;75;21041;-77
2022/03/28 08:39:49;;;;;;;19.23;11.60;;;12.40;99.90;;;;;;1913925;74;21130;-75
2022/03/28 08:42:17;;;;;;;23.92;11.63;;;12.30;99.90;;;;;;1913732;75;21272;-76
2022/03/28 08:44:44;;;;;;;27.25;12.05;;;12.80;99.90;;;;;;1913526;75;21454;-77
2022/03/28 08:47:11;;;;;;;21.97;11.28;;;12.80;99.90;;;;;;1913777;73;21042;-78
2022/03/28 08:49:39;;;;;;;22.13;11.95;;;12.90;99.90;;;;;;1913802;73;21076;-77
2022/03/28 08:52:06;;;;;;;26.20;11.88;;;12.80;99.90;;;;;;1913890;75;21049;-78
2022/03/28 08:54:34;;;;;;;31.07;11.83;;;13.40;99.90;;;;;;1913988;74;21021;-82
2022/03/28 08:57:03;;;;;;;31.23;11.68;;;13.30;99.90;;;;;;1914187;75;21049;-76
2022/03/28 08:59:31;;;;;;;19.85;11.68;;;13.80;99.90;;;;;;1914314;75;21154;-79
2022/03/28 09:01:58;;;;;;;23.55;11.48;;;14.30;99.90;;;;;;1913974;75;21170;-78
2022/03/28 09:04:25;;;;;;;22.90;11.38;;;14.50;99.90;;;;;;1913914;75;21037;-78
2022/03/28 09:06:53;;;;;;;28.95;11.93;;;14.50;99.90;;;;;;1914002;75;21141;-79
2022/03/28 09:09:26;;;;;;;29.82;12.45;;;14.80;99.90;;;;;;1914026;73;21076;-78
2022/03/28 09:11:54;;;;;;;26.40;11.57;;;15.10;99.90;;;;;;1913891;75;21049;-78
2022/03/28 09:14:33;;;;;;;28.57;12.53;;;15.30;99.90;;;;;;1918595;74;21122;-79
2022/03/28 09:17:02;;;;;;;18.12;11.00;;;15.20;99.90;;;;;;1909867;74;21040;-79
2022/03/28 09:19:55;;;;;;;25.72;11.50;;;15.70;99.80;;;;;;1914136;75;21079;-79
2022/03/28 09:22:43;;;;;;;23.35;11.68;;;15.70;99.90;;;;;;1913702;75;21476;-79
2022/03/28 09:25:12;;;;;;;20.35;11.85;;;15.90;99.50;;;;;;1834234;77;21101;-79
2022/03/28 09:27:41;;;;;;;26.02;12.60;;;15.90;98.80;;;;;;1833644;78;21512;-79
2022/03/28 09:30:14;;;;;;;19.67;11.80;;;16.20;97.10;;;;;;1833436;78;21096;-80
2022/03/28 09:32:44;;;;;;;37.42;12.30;;;16.10;96.80;;;;;;1815906;77;21464;-78
2022/03/28 09:35:24;;;;;;;20.30;11.05;;;16.60;95.20;;;;;;1837447;77;21076;-80
2022/03/28 09:38:02;;;;;;;18.07;11.55;;;17.10;94.90;;;;;;1827971;78;21127;-80
2022/03/28 09:40:45;;;;;;;24.72;12.40;;;16.80;94.20;;;;;;1832666;78;21092;-81
2022/03/28 09:43:19;;;;;;;22.50;11.75;;;16.60;92.70;;;;;;1833947;78;21097;-81
2022/03/28 09:45:51;;;;;;;18.67;11.90;;;16.80;93.60;;;;;;1833815;78;21083;-80
2022/03/28 09:48:22;;;;;;;19.23;10.93;;;17.60;91.80;;;;;;1833575;78;21083;-81
2022/03/28 09:50:52;;;;;;;33.85;12.55;;;18.10;89.80;;;;;;1833815;78;21504;-81
2022/03/28 09:53:21;;;;;;;26.48;12.28;;;19.00;87.00;;;;;;1833563;78;21511;-81
2022/03/28 09:55:57;;;;;;;24.40;12.00;;;19.10;83.80;;;;;;1833900;78;21465;-80
2022/03/28 09:58:49;;;;;;;27.20;12.65;;;18.80;82.70;;;;;;1829921;76;21025;-80
2022/03/28 10:01:26;;;;;;;21.40;12.60;;;18.70;82.70;;;;;;1804443;78;21049;-79
2022/03/28 10:03:55;;;;;;;21.70;11.95;;;18.90;82.10;;;;;;1832708;78;21771;-79
2022/03/28 10:06:22;;;;;;;24.37;12.07;;;18.90;82.60;;;;;;1833577;78;21222;-81
2022/03/28 10:08:50;;;;;;;18.67;11.45;;;19.70;79.30;;;;;;1833702;78;21056;-79
2022/03/28 10:11:17;;;;;;;19.05;11.63;;;19.80;77.00;;;;;;1834334;78;21072;-80
2022/03/28 10:13:45;;;;;;;22.60;12.50;;;19.10;78.40;;;;;;1834278;78;21120;-78
2022/03/28 10:16:12;;;;;;;22.60;11.25;;;19.60;77.00;;;;;;1834673;78;21060;-76
2022/03/28 10:18:42;;;;;;;19.15;12.33;;;20.00;77.30;;;;;;1833713;78;21523;-78
2022/03/28 10:21:21;;;;;;;21.85;12.50;;;20.00;75.60;;;;;;1833569;78;21452;-79
2022/03/28 10:23:58;;;;;;;38.92;11.88;;;19.70;75.90;;;;;;1834044;78;21092;-78
2022/03/28 10:26:28;;;;;;;26.95;12.55;;;19.20;76.40;;;;;;1828537;78;21025;-77
2022/03/28 10:29:03;;;;;;;;;;;19.30;77.20;;;;;;1835109;78;21127;-77
2022/03/28 10:31:34;;;;;;;24.57;12.18;;;20.20;74.10;;;;;;1833984;78;20123;-79
2022/03/28 10:34:02;;;;;;;20.02;11.57;;;19.90;73.60;;;;;;1833984;78;21050;-78
2022/03/28 10:36:31;;;;;;;25.75;11.55;;;20.10;73.00;;;;;;1833917;78;21123;-79
2022/03/28 10:39:14;;;;;;;29.30;12.55;;;20.20;73.70;;;;;;1834010;78;21061;-79
2022/03/28 10:41:42;;;;;;;25.77;12.55;;;20.70;70.10;;;;;;1793993;78;21550;-78
2022/03/28 10:44:09;;;;;;;24.70;12.95;;;21.30;69.00;;;;;;1833876;78;21130;-78
2022/03/28 10:46:36;;;;;;;26.85;12.47;;;21.60;66.50;;;;;;1833903;78;21033;-79
2022/03/28 10:49:05;;;;;;;31.93;12.60;;;21.30;65.80;;;;;;1833689;78;21048;-79
2022/03/28 10:51:33;;;;;;;32.60;12.45;;;20.90;66.40;;;;;;1833677;78;21131;-78
2022/03/28 10:54:05;;;;;;;22.77;12.23;;;20.40;67.00;;;;;;1833862;78;21080;-79
2022/03/28 10:56:36;;;;;;;30.10;12.68;;;21.10;67.70;;;;;;1833693;78;21541;-79
2022/03/28 10:59:08;;;;;;;20.77;12.47;;;21.30;66.70;;;;;;1833809;78;21018;-79
2022/03/28 11:01:44;;;;;;;24.70;12.23;;;21.70;64.70;;;;;;1826025;78;21072;-79
2022/03/28 11:04:22;;;;;;;24.82;11.73;;;21.80;63.50;;;;;;1831198;78;21036;-78
2022/03/28 11:07:19;;;;;;;22.87;12.37;;;21.20;63.30;;;;;;1834844;77;21491;-80
2022/03/28 11:09:54;;;;;;;21.42;11.90;;;20.80;63.40;;;;;;1843089;76;21418;-80
2022/03/28 11:12:34;;;;;;;21.10;11.55;;;20.90;64.00;;;;;;1878286;76;21108;-81
2022/03/28 11:15:09;;;;;;;31.45;12.03;;;21.00;62.80;;;;;;1875283;76;21679;-80
2022/03/28 11:17:38;;;;;;;21.50;11.83;;;21.30;61.90;;;;;;1874959;76;21117;-80
2022/03/28 11:20:18;;;;;;;30.95;12.60;;;21.70;60.70;;;;;;1878999;76;21022;-81
2022/03/28 11:23:11;;;;;;;20.02;12.23;;;22.10;60.80;;;;;;1874605;75;21136;-81
2022/03/28 11:25:46;;;;;;;21.37;11.28;;;22.80;60.10;;;;;;1869498;76;21501;-81
2022/03/28 11:28:13;;;;;;;17.32;10.80;;;23.60;55.50;;;;;;1872378;76;21153;-78
2022/03/28 11:30:48;;;;;;;16.85;11.43;;;23.30;55.10;;;;;;1873670;76;21038;-80
2022/03/28 11:33:18;;;;;;;19.17;11.33;;;23.50;52.70;;;;;;1873498;76;21042;-79
2022/03/28 11:35:57;;;;;;;16.00;10.65;;;23.70;54.20;;;;;;1872978;76;21088;-77
2022/03/28 11:38:29;;;;;;;31.52;11.60;;;24.10;50.00;;;;;;1875889;76;21096;-80
2022/03/28 11:40:57;;;;;;;19.48;10.95;;;24.20;49.90;;;;;;1873562;76;21015;-81
2022/03/28 11:43:29;;;;;;;26.33;10.78;;;24.40;49.60;;;;;;1874005;76;21034;-80
2022/03/28 11:45:56;;;;;;;25.20;10.58;;;25.20;49.70;;;;;;1873333;76;21169;-80
2022/03/28 11:48:24;;;;;;;21.62;10.08;;;25.20;46.80;;;;;;1873448;76;21473;-81
2022/03/28 11:50:53;;;;;;;20.75;9.75;;;25.40;44.90;;;;;;1873284;76;21034;-80
2022/03/28 11:53:20;;;;;;;15.83;10.05;;;25.10;45.40;;;;;;1851293;76;21107;-81
2022/03/28 11:55:49;;;;;;;20.57;10.82;;;25.20;44.50;;;;;;1873413;76;21108;-83
2022/03/28 11:58:19;;;;;;;27.40;10.63;;;25.10;44.00;;;;;;1873457;76;21116;-79
2022/03/28 12:00:48;;;;;;;14.47;9.40;;;25.10;44.10;;;;;;1873001;76;21086;-83
2022/03/28 12:03:16;;;;;;;17.95;9.65;;;25.40;43.60;;;;;;1869159;76;21144;-82
2022/03/28 12:05:48;;;;;;;12.55;8.95;;;25.90;42.50;;;;;;1873510;76;21038;-80
2022/03/28 12:08:18;;;;;;;20.30;10.18;;;26.20;41.20;;;;;;1873374;76;21029;-78
2022/03/28 12:10:50;;;;;;;17.17;9.45;;;25.10;41.20;;;;;;1873540;76;21011;-79
2022/03/28 12:13:19;;;;;;;14.38;9.35;;;25.10;41.70;;;;;;1873507;76;21098;-79
2022/03/28 12:15:47;;;;;;;14.93;9.83;;;25.90;40.80;;;;;;1873424;76;21084;-78
2022/03/28 12:18:19;;;;;;;22.02;9.30;;;26.40;40.30;;;;;;1873336;76;21189;-78
2022/03/28 12:20:55;;;;;;;21.97;9.98;;;26.60;40.00;;;;;;1873354;76;21435;-78
2022/03/28 12:23:28;;;;;;;15.32;9.35;;;26.20;39.10;;;;;;1873231;76;21458;-78
2022/03/28 12:25:54;;;;;;;13.48;8.78;;;26.40;40.00;;;;;;1872892;76;21526;-78
2022/03/28 12:28:29;;;;;;;22.58;10.08;;;26.90;39.20;;;;;;1873381;76;21128;-79
2022/03/28 12:31:02;;;;;;;15.25;9.98;;;25.90;42.10;;;;;;1873344;76;21443;-78
2022/03/28 12:33:33;;;;;;;22.98;9.55;;;26.50;42.20;;;;;;1873067;76;21055;-77
2022/03/28 12:36:04;;;;;;;22.62;10.48;;;26.60;42.30;;;;;;1872724;76;21070;-78
2022/03/28 12:38:32;;;;;;;16.52;10.45;;;26.30;43.50;;;;;;1873138;76;21084;-79
2022/03/28 12:41:03;;;;;;;28.98;11.73;;;26.80;42.20;;;;;;1873162;76;21030;-79
2022/03/28 12:43:30;;;;;;;22.82;10.88;;;26.30;41.80;;;;;;1873023;76;21078;-79
2022/03/28 12:45:59;;;;;;;17.55;10.82;;;26.10;42.20;;;;;;1873090;76;21104;-80
2022/03/28 12:48:44;;;;;;;18.75;10.68;;;26.30;42.70;;;;;;1867570;76;21108;-79